Time,TemperatureF,DewpointF,PressureIn,WindDirection,WindDirectionDegrees,WindSpeedMPH,WindSpeedGustMPH,Humidity,HourlyPrecipIn,Conditions,Clouds,dailyrainin,SoftwareType,DateUTC
2013-02-08 00:02:00,50.7,49.0,30.01,North,350,0.0,7.0,94,0.07,,---,0.69,VWS V13.01,2013-02-08 06:02:00,
2013-02-08 00:07:00,50.6,48.9,30.00,NNE,21,0.0,0.0,94,0.02,,---,0.00,VWS V13.01,2013-02-08 06:07:00,
2013-02-08 00:12:00,50.5,48.8,30.01,North,5,2.0,5.0,94,0.02,,---,0.00,VWS V13.01,2013-02-08 06:12:00,
2013-02-08 00:17:00,50.5,48.8,30.01,North,355,1.0,5.0,94,0.02,,---,0.00,VWS V13.01,2013-02-08 06:17:00,
2013-02-08 00:22:00,50.5,48.8,30.01,North,350,0.0,6.0,94,0.02,,---,0.00,VWS V13.01,2013-02-08 06:22:00,
2013-02-08 00:27:00,50.3,48.6,30.01,North,355,4.0,7.0,94,0.02,,---,0.00,VWS V13.01,2013-02-08 06:27:00,
2013-02-08 00:32:00,50.3,48.6,30.01,NNE,18,1.0,7.0,94,0.02,,---,0.00,VWS V13.01,2013-02-08 06:32:00,
2013-02-08 00:37:00,50.1,48.4,30.01,NNW,342,2.0,6.0,94,0.01,,---,0.00,VWS V13.01,2013-02-08 06:37:00,
2013-02-08 00:42:00,50.1,48.2,30.01,NNE,24,4.0,13.0,93,0.01,,---,0.00,VWS V13.01,2013-02-08 06:42:00,
2013-02-08 00:47:00,50.0,48.1,30.01,NNE,27,9.0,13.0,93,0.01,,---,0.00,VWS V13.01,2013-02-08 06:47:00,
2013-02-08 00:53:00,50.0,48.1,30.00,North,349,2.0,13.0,93,0.01,,---,0.00,VWS V13.01,2013-02-08 06:53:00,
2013-02-08 00:58:00,49.9,48.0,30.00,NNE,18,3.0,15.0,93,0.01,,---,0.00,VWS V13.01,2013-02-08 06:58:00,
2013-02-08 01:03:00,49.9,48.0,30.00,NNE,21,2.0,15.0,93,0.01,,---,0.00,VWS V13.01,2013-02-08 07:03:00,
2013-02-08 01:08:00,49.9,48.0,30.01,NNE,26,3.0,10.0,93,0.00,,---,0.00,VWS V13.01,2013-02-08 07:08:00,
2013-02-08 01:13:00,49.8,47.9,30.01,NNE,16,3.0,10.0,93,0.00,,---,0.00,VWS V13.01,2013-02-08 07:13:00,
2013-02-08 01:18:00,49.8,47.9,30.02,North,360,6.0,10.0,93,0.00,,---,0.00,VWS V13.01,2013-02-08 07:18:00,
2013-02-08 01:23:00,49.6,47.7,30.02,North,10,0.0,10.0,93,0.00,,---,0.00,VWS V13.01,2013-02-08 07:23:00,
2013-02-08 01:28:00,49.4,47.2,30.02,North,360,0.0,10.0,92,0.00,,---,0.00,VWS V13.01,2013-02-08 07:28:00,
2013-02-08 01:33:00,49.2,47.0,30.03,NNE,22,3.0,10.0,92,0.00,,---,0.00,VWS V13.01,2013-02-08 07:33:00,
2013-02-08 01:38:00,48.8,46.6,30.03,NNW,346,5.0,5.0,92,0.00,,---,0.00,VWS V13.01,2013-02-08 07:38:00,
2013-02-08 01:43:00,48.7,46.2,30.03,NW,324,2.0,5.0,91,0.00,,---,0.00,VWS V13.01,2013-02-08 07:43:00,
2013-02-08 01:48:00,48.4,45.9,30.04,North,355,3.0,7.0,91,0.00,,---,0.00,VWS V13.01,2013-02-08 07:48:00,
2013-02-08 01:53:00,48.3,45.8,30.04,North,349,1.0,7.0,91,0.00,,---,0.00,VWS V13.01,2013-02-08 07:53:00,
2013-02-08 01:58:00,48.1,45.6,30.05,North,355,2.0,7.0,91,0.00,,---,0.00,VWS V13.01,2013-02-08 07:58:00,
2013-02-08 02:03:00,47.9,45.1,30.05,North,349,2.0,7.0,90,0.00,,---,0.00,VWS V13.01,2013-02-08 08:03:00,
2013-02-08 02:08:00,47.8,45.0,30.05,North,355,0.0,6.0,90,0.00,,---,0.00,VWS V13.01,2013-02-08 08:08:00,
2013-02-08 02:13:00,47.7,44.9,30.06,North,349,2.0,6.0,90,0.00,,---,0.00,VWS V13.01,2013-02-08 08:13:00,
2013-02-08 02:19:00,47.5,44.7,30.06,NNW,348,0.0,6.0,90,0.00,,---,0.00,VWS V13.01,2013-02-08 08:19:00,
2013-02-08 02:24:00,47.4,44.6,30.06,North,350,0.0,6.0,90,0.00,,---,0.00,VWS V13.01,2013-02-08 08:24:00,
2013-02-08 02:29:00,47.3,44.2,30.07,North,349,0.0,6.0,89,0.00,,---,0.00,VWS V13.01,2013-02-08 08:29:00,
2013-02-08 02:34:00,47.2,44.1,30.07,NNW,345,3.0,6.0,89,0.00,,---,0.00,VWS V13.01,2013-02-08 08:34:00,
2013-02-08 02:39:00,47.0,43.9,30.07,NNW,345,0.0,4.0,89,0.00,,---,0.00,VWS V13.01,2013-02-08 08:39:00,
2013-02-08 02:44:00,46.9,43.8,30.07,NNW,346,1.0,5.0,89,0.00,,---,0.00,VWS V13.01,2013-02-08 08:44:00,
2013-02-08 02:49:00,46.7,43.3,30.07,North,349,4.0,5.0,88,0.00,,---,0.00,VWS V13.01,2013-02-08 08:49:00,
2013-02-08 02:54:00,46.5,43.1,30.08,NNW,348,2.0,7.0,88,0.00,,---,0.00,VWS V13.01,2013-02-08 08:54:00,
2013-02-08 02:59:00,46.4,42.8,30.08,North,355,5.0,7.0,87,0.00,,---,0.00,VWS V13.01,2013-02-08 08:59:00,
2013-02-08 03:04:00,46.2,42.5,30.08,NNW,346,3.0,7.0,87,0.00,,---,0.00,VWS V13.01,2013-02-08 09:04:00,
2013-02-08 03:09:00,46.2,42.2,30.08,North,355,5.0,5.0,86,0.00,,---,0.00,VWS V13.01,2013-02-08 09:09:00,
2013-02-08 03:14:00,46.1,42.2,30.08,NNW,346,0.0,6.0,86,0.00,,---,0.00,VWS V13.01,2013-02-08 09:14:00,
2013-02-08 03:19:00,46.0,42.0,30.08,NNW,345,2.0,6.0,86,0.00,,---,0.00,VWS V13.01,2013-02-08 09:19:00,
2013-02-08 03:24:00,45.9,41.7,30.08,North,350,3.0,6.0,85,0.00,,---,0.00,VWS V13.01,2013-02-08 09:24:00,
2013-02-08 03:29:00,45.8,41.5,30.08,North,349,0.0,6.0,85,0.00,,---,0.00,VWS V13.01,2013-02-08 09:29:00,
2013-02-08 03:34:00,45.7,41.5,30.08,NNW,348,0.0,6.0,85,0.00,,---,0.00,VWS V13.01,2013-02-08 09:34:00,
2013-02-08 03:39:00,45.6,41.4,30.08,NNW,348,0.0,3.0,85,0.00,,---,0.00,VWS V13.01,2013-02-08 09:39:00,
2013-02-08 03:44:00,45.5,41.3,30.08,North,350,0.0,4.0,85,0.00,,---,0.00,VWS V13.01,2013-02-08 09:44:00,
2013-02-08 03:49:00,45.3,41.1,30.09,NNE,13,0.0,5.0,85,0.00,,---,0.00,VWS V13.01,2013-02-08 09:49:00,
2013-02-08 03:54:00,45.2,41.0,30.09,North,349,0.0,5.0,85,0.00,,---,0.00,VWS V13.01,2013-02-08 09:54:00,
2013-02-08 03:59:00,45.2,41.0,30.10,NNE,30,0.0,5.0,85,0.00,,---,0.00,VWS V13.01,2013-02-08 09:59:00,
2013-02-08 04:04:00,45.1,40.9,30.10,NNW,344,0.0,5.0,85,0.00,,---,0.00,VWS V13.01,2013-02-08 10:04:00,
2013-02-08 04:09:00,45.0,40.8,30.10,NNW,334,0.0,3.0,85,0.00,,---,0.00,VWS V13.01,2013-02-08 10:09:00,
2013-02-08 04:14:00,45.0,40.8,30.11,NNW,344,4.0,7.0,85,0.00,,---,0.00,VWS V13.01,2013-02-08 10:14:00,
2013-02-08 04:19:00,44.9,40.7,30.11,North,349,1.0,7.0,85,0.00,,---,0.00,VWS V13.01,2013-02-08 10:19:00,
2013-02-08 04:24:00,44.8,40.6,30.11,North,351,0.0,7.0,85,0.00,,---,0.00,VWS V13.01,2013-02-08 10:24:00,
2013-02-08 04:29:00,44.7,40.5,30.11,North,360,0.0,7.0,85,0.00,,---,0.00,VWS V13.01,2013-02-08 10:29:00,
2013-02-08 04:34:00,44.6,40.4,30.12,North,355,0.0,7.0,85,0.00,,---,0.00,VWS V13.01,2013-02-08 10:34:00,
2013-02-08 04:39:00,44.5,40.3,30.12,North,351,0.0,4.0,85,0.00,,---,0.00,VWS V13.01,2013-02-08 10:39:00,
2013-02-08 04:44:00,44.3,40.1,30.12,NNW,348,1.0,5.0,85,0.00,,---,0.00,VWS V13.01,2013-02-08 10:44:00,
2013-02-08 04:49:00,44.2,40.0,30.13,NNW,347,0.0,5.0,85,0.00,,---,0.00,VWS V13.01,2013-02-08 10:49:00,
2013-02-08 04:54:00,44.0,39.8,30.13,North,355,3.0,5.0,85,0.00,,---,0.00,VWS V13.01,2013-02-08 10:54:00,
2013-02-08 04:59:00,43.7,39.2,30.13,NNW,347,0.0,6.0,84,0.00,,---,0.00,VWS V13.01,2013-02-08 10:59:00,
2013-02-08 05:04:00,43.5,39.0,30.13,North,349,0.0,7.0,84,0.00,,---,0.00,VWS V13.01,2013-02-08 11:04:00,
2013-02-08 05:09:00,43.3,38.5,30.14,NNE,22,0.0,5.0,83,0.00,,---,0.00,VWS V13.01,2013-02-08 11:09:00,
2013-02-08 05:14:00,43.2,38.4,30.14,NNE,28,1.0,5.0,83,0.00,,---,0.00,VWS V13.01,2013-02-08 11:14:00,
2013-02-08 05:19:00,43.1,38.3,30.15,North,350,0.0,5.0,83,0.00,,---,0.00,VWS V13.01,2013-02-08 11:19:00,
2013-02-08 05:24:00,43.0,38.2,30.15,North,10,0.0,5.0,83,0.00,,---,0.00,VWS V13.01,2013-02-08 11:24:00,
2013-02-08 05:29:00,42.9,37.8,30.15,NNW,346,0.0,5.0,82,0.00,,---,0.00,VWS V13.01,2013-02-08 11:29:00,
2013-02-08 05:34:00,42.8,37.7,30.16,NNW,348,0.0,5.0,82,0.00,,---,0.00,VWS V13.01,2013-02-08 11:34:00,
2013-02-08 05:39:00,42.7,37.6,30.16,NNW,348,0.0,0.0,82,0.00,,---,0.00,VWS V13.01,2013-02-08 11:39:00,
2013-02-08 05:44:00,42.6,37.8,30.16,NNW,348,1.0,2.0,83,0.00,,---,0.00,VWS V13.01,2013-02-08 11:44:00,
2013-02-08 05:49:00,42.4,37.6,30.16,NNW,348,0.0,2.0,83,0.00,,---,0.00,VWS V13.01,2013-02-08 11:49:00,
2013-02-08 05:54:00,42.3,37.5,30.16,NNW,348,2.0,3.0,83,0.00,,---,0.00,VWS V13.01,2013-02-08 11:54:00,
2013-02-08 05:59:00,42.2,37.4,30.17,NNW,348,0.0,3.0,83,0.00,,---,0.00,VWS V13.01,2013-02-08 11:59:00,
2013-02-08 06:04:00,42.0,37.5,30.17,NNW,348,0.0,3.0,84,0.00,,---,0.00,VWS V13.01,2013-02-08 12:04:00,
2013-02-08 06:09:00,41.8,37.3,30.17,NNW,348,0.0,2.0,84,0.00,,---,0.00,VWS V13.01,2013-02-08 12:09:00,
2013-02-08 06:15:00,41.7,37.2,30.18,NNW,348,0.0,3.0,84,0.00,,---,0.00,VWS V13.01,2013-02-08 12:15:00,
2013-02-08 06:20:00,41.5,37.0,30.18,NNW,348,0.0,3.0,84,0.00,,---,0.00,VWS V13.01,2013-02-08 12:20:00,
2013-02-08 06:25:00,41.3,37.1,30.18,NNW,348,0.0,3.0,85,0.00,,---,0.00,VWS V13.01,2013-02-08 12:25:00,
2013-02-08 06:30:00,41.2,37.0,30.18,NNW,348,0.0,3.0,85,0.00,,---,0.00,VWS V13.01,2013-02-08 12:30:00,
2013-02-08 06:35:00,41.0,36.8,30.19,NNW,348,0.0,3.0,85,0.00,,---,0.00,VWS V13.01,2013-02-08 12:35:00,
2013-02-08 06:40:00,40.8,36.7,30.19,NNW,348,0.0,2.0,85,0.00,,---,0.00,VWS V13.01,2013-02-08 12:40:00,
2013-02-08 06:45:00,40.6,36.5,30.19,NNW,348,0.0,3.0,85,0.00,,---,0.00,VWS V13.01,2013-02-08 12:45:00,
2013-02-08 06:50:00,40.4,36.3,30.19,NNW,348,0.0,3.0,85,0.00,,---,0.00,VWS V13.01,2013-02-08 12:50:00,
2013-02-08 06:55:00,40.2,36.1,30.19,NNW,348,5.0,5.0,85,0.00,,---,0.00,VWS V13.01,2013-02-08 12:55:00,
2013-02-08 07:00:00,40.2,36.3,30.20,NNW,346,1.0,5.0,86,0.00,,---,0.00,VWS V13.01,2013-02-08 13:00:00,
2013-02-08 07:05:00,40.1,36.3,30.20,NNW,347,0.0,5.0,86,0.00,,---,0.00,VWS V13.01,2013-02-08 13:05:00,
2013-02-08 07:10:00,40.1,36.3,30.21,NNW,346,0.0,0.0,86,0.00,,---,0.00,VWS V13.01,2013-02-08 13:10:00,
2013-02-08 07:15:00,40.0,36.2,30.21,NNW,347,0.0,3.0,86,0.00,,---,0.00,VWS V13.01,2013-02-08 13:15:00,
2013-02-08 07:20:00,39.9,36.1,30.21,NNW,347,0.0,3.0,86,0.00,,---,0.00,VWS V13.01,2013-02-08 13:20:00,
2013-02-08 07:26:00,39.8,36.0,30.22,NNW,346,0.0,3.0,86,0.00,,---,0.00,VWS V13.01,2013-02-08 13:26:00,
2013-02-08 07:31:00,39.7,35.9,30.22,NNW,347,0.0,3.0,86,0.00,,---,0.00,VWS V13.01,2013-02-08 13:31:00,
2013-02-08 07:36:00,39.7,35.9,30.23,NNW,346,3.0,3.0,86,0.00,,---,0.00,VWS V13.01,2013-02-08 13:36:00,
2013-02-08 07:41:00,39.6,36.1,30.23,NNW,347,0.0,3.0,87,0.00,,---,0.00,VWS V13.01,2013-02-08 13:41:00,
2013-02-08 07:46:00,39.6,36.1,30.23,NNW,346,0.0,3.0,87,0.00,,---,0.00,VWS V13.01,2013-02-08 13:46:00,
2013-02-08 07:51:00,39.6,36.1,30.24,NNW,347,1.0,3.0,87,0.00,,---,0.00,VWS V13.01,2013-02-08 13:51:00,
2013-02-08 07:56:00,39.7,36.2,30.24,NNW,347,0.0,3.0,87,0.00,,---,0.00,VWS V13.01,2013-02-08 13:56:00,
2013-02-08 08:01:00,39.7,36.2,30.24,NNW,347,0.0,3.0,87,0.00,,---,0.00,VWS V13.01,2013-02-08 14:01:00,
2013-02-08 08:06:00,39.9,36.6,30.24,NNW,346,0.0,2.0,88,0.00,,---,0.00,VWS V13.01,2013-02-08 14:06:00,
2013-02-08 08:11:00,40.1,36.8,30.25,NNW,340,2.0,3.0,88,0.00,,---,0.00,VWS V13.01,2013-02-08 14:11:00,
2013-02-08 08:16:00,40.3,37.0,30.25,NNW,344,0.0,4.0,88,0.00,,---,0.00,VWS V13.01,2013-02-08 14:16:00,
2013-02-08 08:21:00,40.5,36.9,30.25,North,350,2.0,5.0,87,0.00,,---,0.00,VWS V13.01,2013-02-08 14:21:00,
2013-02-08 08:26:00,40.7,37.1,30.25,North,349,2.0,5.0,87,0.00,,---,0.00,VWS V13.01,2013-02-08 14:26:00,
2013-02-08 08:31:00,40.9,37.0,30.25,NNW,336,0.0,5.0,86,0.00,,---,0.00,VWS V13.01,2013-02-08 14:31:00,
2013-02-08 08:36:00,41.0,37.1,30.26,NNW,337,0.0,0.0,86,0.00,,---,0.00,VWS V13.01,2013-02-08 14:36:00,
2013-02-08 08:41:00,41.1,36.9,30.26,NNW,345,1.0,6.0,85,0.00,,---,0.00,VWS V13.01,2013-02-08 14:41:00,
2013-02-08 08:47:00,41.4,37.2,30.26,North,360,2.0,6.0,85,0.00,,---,0.00,VWS V13.01,2013-02-08 14:47:00,
2013-02-08 08:52:00,41.8,37.3,30.26,NNE,15,0.0,6.0,84,0.00,,---,0.00,VWS V13.01,2013-02-08 14:52:00,
2013-02-08 08:57:00,42.0,37.2,30.26,NNE,30,0.0,10.0,83,0.00,,---,0.00,VWS V13.01,2013-02-08 14:57:00,
2013-02-08 09:02:00,42.0,36.6,30.26,North,11,3.0,10.0,81,0.00,,---,0.00,VWS V13.01,2013-02-08 15:02:00,
2013-02-08 09:07:00,42.1,36.4,30.27,North,9,0.0,10.0,80,0.00,,---,0.00,VWS V13.01,2013-02-08 15:07:00,
2013-02-08 09:12:00,42.3,36.6,30.27,NNW,335,1.0,10.0,80,0.00,,---,0.00,VWS V13.01,2013-02-08 15:12:00,
2013-02-08 09:17:00,42.4,36.7,30.27,NNE,32,2.0,10.0,80,0.00,,---,0.00,VWS V13.01,2013-02-08 15:17:00,
2013-02-08 09:22:00,42.6,36.5,30.27,NNE,18,3.0,11.0,79,0.00,,---,0.00,VWS V13.01,2013-02-08 15:22:00,
2013-02-08 09:27:00,42.6,36.5,30.27,NNW,338,2.0,11.0,79,0.00,,---,0.00,VWS V13.01,2013-02-08 15:27:00,
2013-02-08 09:32:00,42.8,36.8,30.28,NNE,28,3.0,11.0,79,0.00,,---,0.00,VWS V13.01,2013-02-08 15:32:00,
2013-02-08 09:37:00,43.0,36.6,30.28,NNE,24,11.0,11.0,78,0.00,,---,0.00,VWS V13.01,2013-02-08 15:37:00,
2013-02-08 09:42:00,43.0,36.0,30.28,North,351,4.0,12.0,76,0.00,,---,0.00,VWS V13.01,2013-02-08 15:42:00,
2013-02-08 09:47:00,42.9,35.5,30.28,North,360,2.0,12.0,75,0.00,,---,0.00,VWS V13.01,2013-02-08 15:47:00,
2013-02-08 09:52:00,43.1,35.7,30.28,NE,34,4.0,12.0,75,0.00,,---,0.00,VWS V13.01,2013-02-08 15:52:00,
2013-02-08 09:57:00,43.2,35.8,30.28,NNW,345,1.0,12.0,75,0.00,,---,0.00,VWS V13.01,2013-02-08 15:57:00,
2013-02-08 10:02:00,43.2,35.8,30.29,North,349,3.0,12.0,75,0.00,,---,0.00,VWS V13.01,2013-02-08 16:02:00,
2013-02-08 10:07:00,43.3,35.9,30.29,NE,51,9.0,9.0,75,0.00,,---,0.00,VWS V13.01,2013-02-08 16:07:00,
2013-02-08 10:12:00,43.4,35.7,30.29,NE,53,6.0,13.0,74,0.00,,---,0.00,VWS V13.01,2013-02-08 16:12:00,
2013-02-08 10:17:00,43.4,35.7,30.29,NNE,32,7.0,13.0,74,0.00,,---,0.00,VWS V13.01,2013-02-08 16:17:00,
2013-02-08 10:22:00,43.6,35.9,30.29,NNE,33,7.0,13.0,74,0.00,,---,0.00,VWS V13.01,2013-02-08 16:22:00,
2013-02-08 10:27:00,43.6,35.9,30.29,NE,34,9.0,13.0,74,0.00,,---,0.00,VWS V13.01,2013-02-08 16:27:00,
2013-02-08 10:32:00,43.8,36.1,30.29,NE,55,12.0,13.0,74,0.00,,---,0.00,VWS V13.01,2013-02-08 16:32:00,
2013-02-08 10:38:00,43.9,35.8,30.29,NE,48,4.0,12.0,73,0.00,,---,0.00,VWS V13.01,2013-02-08 16:38:00,
2013-02-08 10:43:00,44.0,35.6,30.29,NNE,13,1.0,12.0,72,0.00,,---,0.00,VWS V13.01,2013-02-08 16:43:00,
2013-02-08 10:48:00,44.2,36.1,30.29,NE,38,4.0,12.0,73,0.00,,---,0.00,VWS V13.01,2013-02-08 16:48:00,
2013-02-08 10:53:00,44.5,36.4,30.29,NNE,30,10.0,12.0,73,0.00,,---,0.00,VWS V13.01,2013-02-08 16:53:00,
2013-02-08 10:58:00,44.7,35.9,30.29,NE,35,1.0,12.0,71,0.00,,---,0.00,VWS V13.01,2013-02-08 16:58:00,
2013-02-08 11:03:00,45.0,36.2,30.29,NNE,24,5.0,12.0,71,0.00,,---,0.00,VWS V13.01,2013-02-08 17:03:00,
2013-02-08 11:08:00,45.3,36.5,30.28,NE,44,2.0,7.0,71,0.00,,---,0.00,VWS V13.01,2013-02-08 17:08:00,
2013-02-08 11:13:00,45.8,36.6,30.28,NNW,342,2.0,7.0,70,0.00,,---,0.00,VWS V13.01,2013-02-08 17:13:00,
2013-02-08 11:18:00,46.2,37.0,30.28,NE,34,3.0,11.0,70,0.00,,---,0.00,VWS V13.01,2013-02-08 17:18:00,
2013-02-08 11:23:00,46.3,36.3,30.29,North,360,2.0,11.0,68,0.00,,---,0.00,VWS V13.01,2013-02-08 17:23:00,
2013-02-08 11:29:00,46.6,36.6,30.29,East,80,3.0,11.0,68,0.00,,---,0.00,VWS V13.01,2013-02-08 17:29:00,
2013-02-08 11:34:00,46.6,36.6,30.28,East,87,3.0,11.0,68,0.00,,---,0.00,VWS V13.01,2013-02-08 17:34:00,
2013-02-08 11:39:00,46.3,36.0,30.28,East,84,4.0,6.0,67,0.00,,---,0.00,VWS V13.01,2013-02-08 17:39:00,
2013-02-08 11:44:00,47.0,37.0,30.28,North,5,2.0,8.0,68,0.00,,---,0.00,VWS V13.01,2013-02-08 17:44:00,
2013-02-08 11:49:00,47.4,36.2,30.27,NNE,31,3.0,10.0,65,0.00,,---,0.00,VWS V13.01,2013-02-08 17:49:00,
2013-02-08 11:54:00,48.2,37.0,30.27,NE,36,1.0,10.0,65,0.00,,---,0.00,VWS V13.01,2013-02-08 17:54:00,
2013-02-08 11:59:00,47.9,37.5,30.27,NE,54,7.0,10.0,67,0.00,,---,0.00,VWS V13.01,2013-02-08 17:59:00,
2013-02-08 12:04:00,48.4,38.0,30.27,NE,50,5.0,10.0,67,0.00,,---,0.00,VWS V13.01,2013-02-08 18:04:00,
2013-02-08 12:09:00,48.4,38.7,30.27,NE,39,3.0,8.0,69,0.00,,---,0.00,VWS V13.01,2013-02-08 18:09:00,
2013-02-08 12:14:00,48.0,37.6,30.27,NE,42,2.0,8.0,67,0.00,,---,0.00,VWS V13.01,2013-02-08 18:14:00,
2013-02-08 12:19:00,47.6,36.8,30.27,NE,42,4.0,8.0,66,0.00,,---,0.00,VWS V13.01,2013-02-08 18:19:00,
2013-02-08 12:24:00,47.9,37.9,30.27,NE,42,2.0,8.0,68,0.00,,---,0.00,VWS V13.01,2013-02-08 18:24:00,
2013-02-08 12:30:00,48.5,37.3,30.26,NE,42,1.0,8.0,65,0.00,,---,0.00,VWS V13.01,2013-02-08 18:30:00,
2013-02-08 12:35:00,48.3,37.5,30.27,NE,42,0.0,8.0,66,0.00,,---,0.00,VWS V13.01,2013-02-08 18:35:00,
2013-02-08 12:40:00,48.8,37.2,30.27,NE,42,3.0,4.0,64,0.00,,---,0.00,VWS V13.01,2013-02-08 18:40:00,
2013-02-08 12:45:00,49.3,36.8,30.27,NE,42,3.0,4.0,62,0.00,,---,0.00,VWS V13.01,2013-02-08 18:45:00,
2013-02-08 12:50:00,49.8,38.9,30.27,East,87,3.0,4.0,66,0.00,,---,0.00,VWS V13.01,2013-02-08 18:50:00,
2013-02-08 12:55:00,50.6,38.9,30.26,NNE,32,2.0,6.0,64,0.00,,---,0.00,VWS V13.01,2013-02-08 18:55:00,
2013-02-08 13:00:00,51.1,39.0,30.26,NE,47,2.0,9.0,63,0.00,,---,0.00,VWS V13.01,2013-02-08 19:00:00,
2013-02-08 13:05:00,51.1,38.5,30.26,NE,46,3.0,9.0,62,0.00,,---,0.00,VWS V13.01,2013-02-08 19:05:00,
2013-02-08 13:10:00,51.8,39.6,30.26,SSE,160,3.0,6.0,63,0.00,,---,0.00,VWS V13.01,2013-02-08 19:10:00,
2013-02-08 13:15:00,51.0,36.8,30.26,SSE,168,1.0,6.0,58,0.00,,---,0.00,VWS V13.01,2013-02-08 19:15:00,
2013-02-08 13:20:00,51.4,38.8,30.25,NE,53,1.0,6.0,62,0.00,,---,0.00,VWS V13.01,2013-02-08 19:20:00,
2013-02-08 13:25:00,52.1,39.1,30.25,ESE,115,3.0,6.0,61,0.00,,---,0.00,VWS V13.01,2013-02-08 19:25:00,
2013-02-08 13:30:00,52.3,38.4,30.25,ENE,64,2.0,6.0,59,0.00,,---,0.00,VWS V13.01,2013-02-08 19:30:00,
2013-02-08 13:35:00,52.7,38.8,30.25,ESE,114,6.0,6.0,59,0.00,,---,0.00,VWS V13.01,2013-02-08 19:35:00,
2013-02-08 13:41:00,52.8,39.3,30.25,ESE,114,2.0,6.0,60,0.00,,---,0.00,VWS V13.01,2013-02-08 19:41:00,
2013-02-08 13:46:00,52.8,39.3,30.25,ESE,113,0.0,6.0,60,0.00,,---,0.00,VWS V13.01,2013-02-08 19:46:00,
2013-02-08 13:51:00,52.3,38.8,30.25,ESE,113,0.0,6.0,60,0.00,,---,0.00,VWS V13.01,2013-02-08 19:51:00,
2013-02-08 13:56:00,52.7,40.1,30.25,ESE,113,2.0,6.0,62,0.00,,---,0.00,VWS V13.01,2013-02-08 19:56:00,
2013-02-08 14:01:00,53.4,39.0,30.25,ESE,113,0.0,6.0,58,0.00,,---,0.00,VWS V13.01,2013-02-08 20:01:00,
2013-02-08 14:06:00,54.2,38.4,30.25,NNE,33,0.0,2.0,55,0.00,,---,0.00,VWS V13.01,2013-02-08 20:06:00,
2013-02-08 14:11:00,53.1,37.8,30.25,NNE,32,3.0,7.0,56,0.00,,---,0.00,VWS V13.01,2013-02-08 20:11:00,
2013-02-08 14:16:00,53.9,39.9,30.25,ENE,71,2.0,7.0,59,0.00,,---,0.00,VWS V13.01,2013-02-08 20:16:00,
2013-02-08 14:21:00,53.2,38.4,30.25,ENE,58,1.0,7.0,57,0.00,,---,0.00,VWS V13.01,2013-02-08 20:21:00,
2013-02-08 14:26:00,53.3,38.9,30.25,ENE,59,2.0,7.0,58,0.00,,---,0.00,VWS V13.01,2013-02-08 20:26:00,
2013-02-08 14:31:00,53.4,39.0,30.25,SW,214,2.0,7.0,58,0.00,,---,0.00,VWS V13.01,2013-02-08 20:31:00,
2013-02-08 14:36:00,53.9,38.6,30.25,SSW,203,2.0,2.0,56,0.00,,---,0.00,VWS V13.01,2013-02-08 20:36:00,
2013-02-08 14:42:00,52.9,38.5,30.25,SW,236,0.0,5.0,58,0.00,,---,0.00,VWS V13.01,2013-02-08 20:42:00,
2013-02-08 14:47:00,52.7,38.3,30.25,WSW,239,0.0,5.0,58,0.00,,---,0.00,VWS V13.01,2013-02-08 20:47:00,
2013-02-08 14:52:00,54.3,39.8,30.25,SW,232,2.0,5.0,58,0.00,,---,0.00,VWS V13.01,2013-02-08 20:52:00,
2013-02-08 14:57:00,53.9,39.0,30.24,WSW,245,0.0,5.0,57,0.00,,---,0.00,VWS V13.01,2013-02-08 20:57:00,
2013-02-08 15:02:00,53.5,38.2,30.24,WSW,245,0.0,5.0,56,0.00,,---,0.00,VWS V13.01,2013-02-08 21:02:00,
2013-02-08 15:07:00,52.7,37.5,30.24,WSW,245,0.0,0.0,56,0.00,,---,0.00,VWS V13.01,2013-02-08 21:07:00,
2013-02-08 15:12:00,54.2,40.2,30.23,WSW,240,3.0,5.0,59,0.00,,---,0.00,VWS V13.01,2013-02-08 21:12:00,
2013-02-08 15:17:00,55.0,39.6,30.22,ESE,122,1.0,5.0,56,0.00,,---,0.00,VWS V13.01,2013-02-08 21:17:00,
2013-02-08 15:22:00,54.1,38.3,30.23,ESE,122,4.0,5.0,55,0.00,,---,0.00,VWS V13.01,2013-02-08 21:22:00,
2013-02-08 15:27:00,53.7,38.4,30.22,ESE,117,2.0,6.0,56,0.00,,---,0.00,VWS V13.01,2013-02-08 21:27:00,
2013-02-08 15:32:00,53.8,38.5,30.22,East,101,5.0,9.0,56,0.00,,---,0.00,VWS V13.01,2013-02-08 21:32:00,
2013-02-08 15:37:00,53.6,39.2,30.22,East,101,1.0,2.0,58,0.00,,---,0.00,VWS V13.01,2013-02-08 21:37:00,
2013-02-08 15:42:00,53.7,38.4,30.22,East,99,2.0,7.0,56,0.00,,---,0.00,VWS V13.01,2013-02-08 21:42:00,
2013-02-08 15:47:00,53.4,39.0,30.21,East,100,0.0,7.0,58,0.00,,---,0.00,VWS V13.01,2013-02-08 21:47:00,
2013-02-08 15:52:00,53.6,39.2,30.22,East,92,1.0,7.0,58,0.00,,---,0.00,VWS V13.01,2013-02-08 21:52:00,
2013-02-08 15:57:00,53.2,37.9,30.23,ENE,60,2.0,10.0,56,0.00,,---,0.00,VWS V13.01,2013-02-08 21:57:00,
2013-02-08 16:02:00,53.2,38.4,30.23,SW,215,2.0,10.0,57,0.00,,---,0.00,VWS V13.01,2013-02-08 22:02:00,
2013-02-08 16:08:00,52.9,38.5,30.23,SW,214,1.0,2.0,58,0.00,,---,0.00,VWS V13.01,2013-02-08 22:08:00,
2013-02-08 16:13:00,53.3,37.6,30.24,ESE,103,0.0,4.0,55,0.00,,---,0.00,VWS V13.01,2013-02-08 22:13:00,
2013-02-08 16:18:00,53.3,38.5,30.24,ESE,117,0.0,5.0,57,0.00,,---,0.00,VWS V13.01,2013-02-08 22:18:00,
2013-02-08 16:23:00,53.3,38.0,30.24,ESE,117,0.0,5.0,56,0.00,,---,0.00,VWS V13.01,2013-02-08 22:23:00,
2013-02-08 16:28:00,52.8,38.5,30.24,ESE,117,0.0,5.0,58,0.00,,---,0.00,VWS V13.01,2013-02-08 22:28:00,
2013-02-08 16:33:00,52.6,37.4,30.25,ESE,117,2.0,5.0,56,0.00,,---,0.00,VWS V13.01,2013-02-08 22:33:00,
2013-02-08 16:38:00,52.3,37.5,30.24,ESE,117,1.0,4.0,57,0.00,,---,0.00,VWS V13.01,2013-02-08 22:38:00,
2013-02-08 16:43:00,52.2,37.9,30.24,ESE,117,3.0,5.0,58,0.00,,---,0.00,VWS V13.01,2013-02-08 22:43:00,
2013-02-08 16:48:00,51.9,37.6,30.24,ESE,117,0.0,5.0,58,0.00,,---,0.00,VWS V13.01,2013-02-08 22:48:00,
2013-02-08 16:53:00,51.4,37.1,30.24,ESE,117,3.0,5.0,58,0.00,,---,0.00,VWS V13.01,2013-02-08 22:53:00,
2013-02-08 16:58:00,51.2,37.4,30.24,ESE,117,0.0,5.0,59,0.00,,---,0.00,VWS V13.01,2013-02-08 22:58:00,
2013-02-08 17:03:00,51.2,37.4,30.24,ESE,117,1.0,5.0,59,0.00,,---,0.00,VWS V13.01,2013-02-08 23:03:00,
2013-02-08 17:08:00,51.2,37.4,30.24,ESE,117,0.0,3.0,59,0.00,,---,0.00,VWS V13.01,2013-02-08 23:08:00,
2013-02-08 17:13:00,51.0,37.2,30.25,ESE,117,0.0,5.0,59,0.00,,---,0.00,VWS V13.01,2013-02-08 23:13:00,
2013-02-08 17:19:00,50.9,36.7,30.25,ESE,117,0.0,5.0,58,0.00,,---,0.00,VWS V13.01,2013-02-08 23:19:00,
2013-02-08 17:24:00,50.8,37.0,30.25,ESE,117,3.0,6.0,59,0.00,,---,0.00,VWS V13.01,2013-02-08 23:24:00,
2013-02-08 17:29:00,50.5,36.7,30.25,ESE,117,1.0,6.0,59,0.00,,---,0.00,VWS V13.01,2013-02-08 23:29:00,
2013-02-08 17:34:00,50.2,37.3,30.26,ESE,117,1.0,6.0,61,0.00,,---,0.00,VWS V13.01,2013-02-08 23:34:00,
2013-02-08 17:39:00,49.9,37.4,30.25,ESE,117,0.0,2.0,62,0.00,,---,0.00,VWS V13.01,2013-02-08 23:39:00,
2013-02-08 17:44:00,49.4,37.8,30.25,ESE,117,1.0,4.0,64,0.00,,---,0.00,VWS V13.01,2013-02-08 23:44:00,
2013-02-08 17:49:00,48.9,37.7,30.26,ESE,117,0.0,4.0,65,0.00,,---,0.00,VWS V13.01,2013-02-08 23:49:00,
2013-02-08 17:54:00,48.4,37.6,30.25,ESE,117,0.0,4.0,66,0.00,,---,0.00,VWS V13.01,2013-02-08 23:54:00,
2013-02-08 17:59:00,48.1,37.7,30.25,ESE,117,0.0,4.0,67,0.00,,---,0.00,VWS V13.01,2013-02-08 23:59:00,
2013-02-08 18:04:00,47.8,37.4,30.25,ESE,117,0.0,4.0,67,0.00,,---,0.00,VWS V13.01,2013-02-09 00:04:00,
2013-02-08 18:09:00,47.6,37.2,30.26,ESE,117,0.0,3.0,67,0.00,,---,0.00,VWS V13.01,2013-02-09 00:09:00,
2013-02-08 18:14:00,47.3,37.3,30.26,ESE,117,0.0,3.0,68,0.00,,---,0.00,VWS V13.01,2013-02-09 00:14:00,
2013-02-08 18:19:00,46.9,37.3,30.26,ESE,117,0.0,3.0,69,0.00,,---,0.00,VWS V13.01,2013-02-09 00:19:00,
2013-02-08 18:24:00,46.7,36.7,30.26,ESE,117,0.0,6.0,68,0.00,,---,0.00,VWS V13.01,2013-02-09 00:24:00,
2013-02-08 18:29:00,46.7,36.3,30.26,ESE,117,2.0,6.0,67,0.00,,---,0.00,VWS V13.01,2013-02-09 00:29:00,
2013-02-08 18:34:00,46.7,36.3,30.26,ESE,117,0.0,6.0,67,0.00,,---,0.00,VWS V13.01,2013-02-09 00:34:00,
2013-02-08 18:39:00,46.5,36.2,30.26,ESE,117,0.0,3.0,67,0.00,,---,0.00,VWS V13.01,2013-02-09 00:39:00,
2013-02-08 18:44:00,46.3,36.3,30.26,ESE,118,0.0,6.0,68,0.00,,---,0.00,VWS V13.01,2013-02-09 00:44:00,
2013-02-08 18:50:00,46.3,36.0,30.26,ESE,118,0.0,6.0,67,0.00,,---,0.00,VWS V13.01,2013-02-09 00:50:00,
2013-02-08 18:55:00,46.1,36.1,30.26,ESE,122,4.0,6.0,68,0.00,,---,0.00,VWS V13.01,2013-02-09 00:55:00,
2013-02-08 19:00:00,46.1,35.8,30.26,SE,125,0.0,6.0,67,0.00,,---,0.00,VWS V13.01,2013-02-09 01:00:00,
2013-02-08 19:05:00,46.2,35.9,30.26,SE,136,0.0,6.0,67,0.00,,---,0.00,VWS V13.01,2013-02-09 01:05:00,
2013-02-08 19:10:00,46.2,35.5,30.26,SSE,153,1.0,10.0,66,0.00,,---,0.00,VWS V13.01,2013-02-09 01:10:00,
2013-02-08 19:15:00,46.3,35.2,30.26,SE,145,0.0,10.0,65,0.00,,---,0.00,VWS V13.01,2013-02-09 01:15:00,
2013-02-08 19:20:00,46.3,35.2,30.26,SE,128,2.0,10.0,65,0.00,,---,0.00,VWS V13.01,2013-02-09 01:20:00,
2013-02-08 19:25:00,46.0,35.3,30.26,SE,138,3.0,10.0,66,0.00,,---,0.00,VWS V13.01,2013-02-09 01:25:00,
2013-02-08 19:30:00,45.9,35.2,30.26,ESE,121,2.0,10.0,66,0.00,,---,0.00,VWS V13.01,2013-02-09 01:30:00,
2013-02-08 19:35:00,45.8,35.5,30.26,ESE,118,0.0,10.0,67,0.00,,---,0.00,VWS V13.01,2013-02-09 01:35:00,
2013-02-08 19:40:00,45.5,35.2,30.26,ESE,110,5.0,7.0,67,0.00,,---,0.00,VWS V13.01,2013-02-09 01:40:00,
2013-02-08 19:45:00,45.3,35.4,30.26,ESE,120,1.0,7.0,68,0.00,,---,0.00,VWS V13.01,2013-02-09 01:45:00,
2013-02-08 19:50:00,45.1,35.2,30.26,ESE,118,0.0,7.0,68,0.00,,---,0.00,VWS V13.01,2013-02-09 01:50:00,
2013-02-08 19:56:00,45.0,35.5,30.26,ESE,118,0.0,7.0,69,0.00,,---,0.00,VWS V13.01,2013-02-09 01:56:00,
2013-02-08 20:01:00,44.8,35.3,30.26,ESE,116,0.0,7.0,69,0.00,,---,0.00,VWS V13.01,2013-02-09 02:01:00,
2013-02-08 20:06:00,44.7,35.2,30.26,South,171,4.0,4.0,69,0.00,,---,0.00,VWS V13.01,2013-02-09 02:06:00,
2013-02-08 20:11:00,44.6,35.1,30.26,ESE,116,2.0,6.0,69,0.00,,---,0.00,VWS V13.01,2013-02-09 02:11:00,
2013-02-08 20:16:00,44.5,35.0,30.26,SE,137,5.0,7.0,69,0.00,,---,0.00,VWS V13.01,2013-02-09 02:16:00,
2013-02-08 20:21:00,44.5,35.0,30.26,ESE,122,0.0,8.0,69,0.00,,---,0.00,VWS V13.01,2013-02-09 02:21:00,
2013-02-08 20:26:00,44.4,34.9,30.27,ESE,122,0.0,8.0,69,0.00,,---,0.00,VWS V13.01,2013-02-09 02:26:00,
2013-02-08 20:31:00,44.3,34.8,30.27,ESE,123,3.0,8.0,69,0.00,,---,0.00,VWS V13.01,2013-02-09 02:31:00,
2013-02-08 20:36:00,44.2,34.7,30.27,ESE,122,2.0,4.0,69,0.00,,---,0.00,VWS V13.01,2013-02-09 02:36:00,
2013-02-08 20:41:00,44.1,35.0,30.26,ESE,122,0.0,4.0,70,0.00,,---,0.00,VWS V13.01,2013-02-09 02:41:00,
2013-02-08 20:46:00,44.0,34.9,30.27,ESE,122,0.0,4.0,70,0.00,,---,0.00,VWS V13.01,2013-02-09 02:46:00,
2013-02-08 20:51:00,43.9,34.8,30.27,ESE,122,0.0,4.0,70,0.00,,---,0.00,VWS V13.01,2013-02-09 02:51:00,
2013-02-08 20:56:00,43.8,34.7,30.27,ESE,122,0.0,4.0,70,0.00,,---,0.00,VWS V13.01,2013-02-09 02:56:00,
2013-02-08 21:02:00,43.7,34.6,30.27,ESE,122,0.0,4.0,70,0.00,,---,0.00,VWS V13.01,2013-02-09 03:02:00,
2013-02-08 21:07:00,43.5,34.4,30.27,ESE,122,0.0,0.0,70,0.00,,---,0.00,VWS V13.01,2013-02-09 03:07:00,
2013-02-08 21:12:00,43.4,34.3,30.27,ESE,122,0.0,6.0,70,0.00,,---,0.00,VWS V13.01,2013-02-09 03:12:00,
2013-02-08 21:17:00,43.2,34.5,30.27,ESE,122,2.0,6.0,71,0.00,,---,0.00,VWS V13.01,2013-02-09 03:17:00,
2013-02-08 21:22:00,43.1,34.3,30.28,ESE,122,0.0,6.0,71,0.00,,---,0.00,VWS V13.01,2013-02-09 03:22:00,
2013-02-08 21:27:00,43.0,34.2,30.28,ESE,122,0.0,6.0,71,0.00,,---,0.00,VWS V13.01,2013-02-09 03:27:00,
2013-02-08 21:32:00,42.9,34.5,30.28,ESE,122,3.0,6.0,72,0.00,,---,0.00,VWS V13.01,2013-02-09 03:32:00,
2013-02-08 21:37:00,42.8,34.4,30.28,SE,132,0.0,7.0,72,0.00,,---,0.00,VWS V13.01,2013-02-09 03:37:00,
2013-02-08 21:42:00,42.7,34.3,30.28,ESE,116,4.0,10.0,72,0.00,,---,0.00,VWS V13.01,2013-02-09 03:42:00,
2013-02-08 21:47:00,42.6,34.6,30.28,SE,126,2.0,12.0,73,0.00,,---,0.00,VWS V13.01,2013-02-09 03:47:00,
2013-02-08 21:52:00,42.5,34.8,30.28,ESE,117,2.0,12.0,74,0.00,,---,0.00,VWS V13.01,2013-02-09 03:52:00,
2013-02-08 21:57:00,42.4,34.7,30.28,ESE,123,4.0,12.0,74,0.00,,---,0.00,VWS V13.01,2013-02-09 03:57:00,
2013-02-08 22:02:00,42.2,34.9,30.28,ESE,123,5.0,12.0,75,0.00,,---,0.00,VWS V13.01,2013-02-09 04:02:00,
2013-02-08 22:07:00,42.0,35.0,30.28,SE,136,4.0,7.0,76,0.00,,---,0.00,VWS V13.01,2013-02-09 04:07:00,
2013-02-08 22:12:00,41.9,34.9,30.28,SE,145,5.0,7.0,76,0.00,,---,0.00,VWS V13.01,2013-02-09 04:12:00,
2013-02-08 22:17:00,41.7,35.0,30.28,East,80,2.0,8.0,77,0.00,,---,0.00,VWS V13.01,2013-02-09 04:17:00,
2013-02-08 22:22:00,41.5,35.2,30.28,East,94,2.0,8.0,78,0.00,,---,0.00,VWS V13.01,2013-02-09 04:22:00,
2013-02-08 22:27:00,41.4,35.1,30.28,ESE,119,4.0,8.0,78,0.00,,---,0.00,VWS V13.01,2013-02-09 04:27:00,
2013-02-08 22:32:00,41.2,35.2,30.28,East,96,4.0,10.0,79,0.00,,---,0.00,VWS V13.01,2013-02-09 04:32:00,
2013-02-08 22:38:00,41.1,35.1,30.28,SE,126,3.0,10.0,79,0.00,,---,0.00,VWS V13.01,2013-02-09 04:38:00,
2013-02-08 22:43:00,40.9,34.9,30.28,SSW,206,4.0,10.0,79,0.00,,---,0.00,VWS V13.01,2013-02-09 04:43:00,
2013-02-08 22:48:00,40.8,35.1,30.28,SSE,160,4.0,10.0,80,0.00,,---,0.00,VWS V13.01,2013-02-09 04:48:00,
2013-02-08 22:53:00,40.6,34.9,30.28,ESE,113,0.0,10.0,80,0.00,,---,0.00,VWS V13.01,2013-02-09 04:53:00,
2013-02-08 22:58:00,40.5,35.1,30.28,ESE,115,2.0,10.0,81,0.00,,---,0.00,VWS V13.01,2013-02-09 04:58:00,
2013-02-08 23:00:00,40.4,35.0,30.28,SE,145,1.0,10.0,81,0.00,,---,0.00,VWS V13.01,2013-02-09 05:00:00,
2013-02-08 23:01:00,40.4,35.0,30.28,ESE,123,0.0,10.0,81,0.00,,---,0.00,VWS V13.01,2013-02-09 05:01:00,
2013-02-08 23:06:00,40.3,34.9,30.27,NNE,29,0.0,0.0,81,0.00,,---,0.00,VWS V13.01,2013-02-09 05:06:00,
2013-02-08 23:11:00,40.1,34.8,30.27,ESE,121,2.0,9.0,81,0.00,,---,0.00,VWS V13.01,2013-02-09 05:11:00,
2013-02-08 23:16:00,39.9,34.9,30.27,SE,131,7.0,10.0,82,0.00,,---,0.00,VWS V13.01,2013-02-09 05:16:00,
2013-02-08 23:21:00,39.8,34.8,30.27,South,175,3.0,10.0,82,0.00,,---,0.00,VWS V13.01,2013-02-09 05:21:00,
2013-02-08 23:26:00,39.7,34.7,30.27,ENE,72,11.0,11.0,82,0.00,,---,0.00,VWS V13.01,2013-02-09 05:26:00,
2013-02-08 23:31:00,39.5,34.8,30.27,ESE,107,2.0,11.0,83,0.00,,---,0.00,VWS V13.01,2013-02-09 05:31:00,
2013-02-08 23:36:00,39.4,34.7,30.27,SE,124,0.0,4.0,83,0.00,,---,0.00,VWS V13.01,2013-02-09 05:36:00,
2013-02-08 23:41:00,39.3,34.6,30.27,SE,127,1.0,8.0,83,0.00,,---,0.00,VWS V13.01,2013-02-09 05:41:00,
2013-02-08 23:46:00,39.1,34.4,30.27,ESE,121,2.0,9.0,83,0.00,,---,0.00,VWS V13.01,2013-02-09 05:46:00,
2013-02-08 23:51:00,38.9,34.5,30.27,ESE,107,2.0,12.0,84,0.00,,---,0.00,VWS V13.01,2013-02-09 05:51:00,
2013-02-08 23:56:00,38.8,34.4,30.27,ESE,113,5.0,12.0,84,0.00,,---,0.00,VWS V13.01,2013-02-09 05:56:00,